sensor_id;sensor_type;location;lat;lon;timestamp;pressure;altitude;pressure_sealevel;temperature;humidity
61014;BME280;46899;47.542;19.082;2022-11-14T00:01:26;101699.56;;;5.37;100.00
61014;BME280;46899;47.542;19.082;2022-11-14T00:04:47;101696.06;;;5.35;100.00
61014;BME280;46899;47.542;19.082;2022-11-14T00:08:16;101691.75;;;5.32;100.00
61014;BME280;46899;47.542;19.082;2022-11-14T00:11:37;101693.38;;;5.20;100.00
61014;BME280;46899;47.542;19.082;2022-11-14T00:14:57;101697.66;;;5.18;100.00
61014;BME280;46899;47.542;19.082;2022-11-14T00:18:18;101693.31;;;5.12;100.00
61014;BME280;46899;47.542;19.082;2022-11-14T00:21:39;101694.13;;;5.08;100.00
61014;BME280;46899;47.542;19.082;2022-11-14T00:24:59;101693.19;;;5.00;100.00
61014;BME280;46899;47.542;19.082;2022-11-14T00:28:20;101690.66;;;5.03;100.00
61014;BME280;46899;47.542;19.082;2022-11-14T00:31:41;101681.97;;;4.95;100.00
61014;BME280;46899;47.542;19.082;2022-11-14T00:35:02;101689.69;;;4.92;100.00
61014;BME280;46899;47.542;19.082;2022-11-14T00:38:23;101687.91;;;4.88;100.00
61014;BME280;46899;47.542;19.082;2022-11-14T00:41:44;101690.44;;;4.82;100.00
61014;BME280;46899;47.542;19.082;2022-11-14T00:45:05;101687.94;;;4.90;100.00
61014;BME280;46899;47.542;19.082;2022-11-14T00:48:25;101687.84;;;4.80;100.00
61014;BME280;46899;47.542;19.082;2022-11-14T00:51:46;101687.75;;;4.70;100.00
61014;BME280;46899;47.542;19.082;2022-11-14T00:55:07;101688.63;;;4.70;100.00
61014;BME280;46899;47.542;19.082;2022-11-14T00:58:46;101685.22;;;4.73;100.00
61014;BME280;46899;47.542;19.082;2022-11-14T01:02:07;101684.34;;;4.74;100.00
61014;BME280;46899;47.542;19.082;2022-11-14T01:05:28;101684.34;;;4.74;100.00
61014;BME280;46899;47.542;19.082;2022-11-14T01:08:49;101680.78;;;4.63;100.00
61014;BME280;46899;47.542;19.082;2022-11-14T01:12:11;101679.03;;;4.59;100.00
61014;BME280;46899;47.542;19.082;2022-11-14T01:15:32;101687.63;;;4.59;100.00
61014;BME280;46899;47.542;19.082;2022-11-14T01:18:52;101685.03;;;4.59;100.00
61014;BME280;46899;47.542;19.082;2022-11-14T01:22:13;101677.31;;;4.58;100.00
61014;BME280;46899;47.542;19.082;2022-11-14T01:25:35;101677.22;;;4.49;100.00
61014;BME280;46899;47.542;19.082;2022-11-14T01:28:56;101675.56;;;4.54;100.00
61014;BME280;46899;47.542;19.082;2022-11-14T01:32:17;101669.56;;;4.58;100.00
61014;BME280;46899;47.542;19.082;2022-11-14T01:35:37;101666.06;;;4.51;100.00
61014;BME280;46899;47.542;19.082;2022-11-14T01:38:58;101665.28;;;4.60;100.00
61014;BME280;46899;47.542;19.082;2022-11-14T01:42:19;101665.25;;;4.54;100.00
61014;BME280;46899;47.542;19.082;2022-11-14T01:46:03;101667.00;;;4.56;100.00
61014;BME280;46899;47.542;19.082;2022-11-14T01:49:25;101667.69;;;4.40;100.00
61014;BME280;46899;47.542;19.082;2022-11-14T01:52:46;101671.88;;;4.34;100.00
61014;BME280;46899;47.542;19.082;2022-11-14T01:56:07;101665.09;;;4.43;100.00
61014;BME280;46899;47.542;19.082;2022-11-14T01:59:36;101653.09;;;4.45;100.00
61014;BME280;46899;47.542;19.082;2022-11-14T02:02:58;101653.13;;;4.47;100.00
61014;BME280;46899;47.542;19.082;2022-11-14T02:06:20;101653.97;;;4.46;100.00
61014;BME280;46899;47.542;19.082;2022-11-14T02:09:43;101653.94;;;4.41;100.00
61014;BME280;46899;47.542;19.082;2022-11-14T02:13:05;101647.81;;;4.32;100.00
61014;BME280;46899;47.542;19.082;2022-11-14T02:16:26;101658.06;;;4.29;100.00
61014;BME280;46899;47.542;19.082;2022-11-14T02:19:51;101655.44;;;4.24;100.00
61014;BME280;46899;47.542;19.082;2022-11-14T02:23:12;101645.19;;;4.27;100.00
61014;BME280;46899;47.542;19.082;2022-11-14T02:26:32;101645.06;;;4.17;100.00
61014;BME280;46899;47.542;19.082;2022-11-14T02:30:06;101648.38;;;4.08;100.00
61014;BME280;46899;47.542;19.082;2022-11-14T02:33:28;101655.22;;;4.06;100.00
61014;BME280;46899;47.542;19.082;2022-11-14T02:36:49;101651.78;;;4.05;100.00
61014;BME280;46899;47.542;19.082;2022-11-14T02:40:11;101650.75;;;3.91;100.00
61014;BME280;46899;47.542;19.082;2022-11-14T02:43:32;101652.50;;;3.92;100.00
61014;BME280;46899;47.542;19.082;2022-11-14T02:46:52;101645.69;;;3.99;100.00
61014;BME280;46899;47.542;19.082;2022-11-14T02:50:13;101646.47;;;3.90;100.00
61014;BME280;46899;47.542;19.082;2022-11-14T02:53:35;101650.03;;;4.00;100.00
61014;BME280;46899;47.542;19.082;2022-11-14T02:56:56;101645.66;;;3.94;100.00
61014;BME280;46899;47.542;19.082;2022-11-14T03:00:17;101638.75;;;3.90;100.00
61014;BME280;46899;47.542;19.082;2022-11-14T03:03:38;101647.19;;;3.80;100.00
61014;BME280;46899;47.542;19.082;2022-11-14T03:06:59;101628.22;;;3.74;100.00
61014;BME280;46899;47.542;19.082;2022-11-14T03:10:20;101642.03;;;3.82;100.00
61014;BME280;46899;47.542;19.082;2022-11-14T03:13:41;101641.09;;;3.74;100.00
61014;BME280;46899;47.542;19.082;2022-11-14T03:17:02;101638.53;;;3.75;100.00
61014;BME280;46899;47.542;19.082;2022-11-14T03:20:23;101630.81;;;3.75;100.00
61014;BME280;46899;47.542;19.082;2022-11-14T03:23:45;101626.47;;;3.71;100.00
61014;BME280;46899;47.542;19.082;2022-11-14T03:27:06;101636.84;;;3.77;100.00
61014;BME280;46899;47.542;19.082;2022-11-14T03:30:27;101625.69;;;3.78;100.00
61014;BME280;46899;47.542;19.082;2022-11-14T03:33:47;101624.03;;;3.82;100.00
61014;BME280;46899;47.542;19.082;2022-11-14T03:37:08;101628.31;;;3.81;100.00
61014;BME280;46899;47.542;19.082;2022-11-14T03:40:29;101631.59;;;3.70;100.00
61014;BME280;46899;47.542;19.082;2022-11-14T03:43:50;101622.22;;;3.75;100.00
61014;BME280;46899;47.542;19.082;2022-11-14T03:47:11;101623.97;;;3.77;100.00
61014;BME280;46899;47.542;19.082;2022-11-14T03:50:33;101624.72;;;3.69;100.00
61014;BME280;46899;47.542;19.082;2022-11-14T03:53:54;101631.50;;;3.64;100.00
61014;BME280;46899;47.542;19.082;2022-11-14T03:57:15;101628.16;;;3.69;100.00
61014;BME280;46899;47.542;19.082;2022-11-14T04:00:36;101631.50;;;3.62;100.00
61014;BME280;46899;47.542;19.082;2022-11-14T04:03:57;101619.28;;;3.49;100.00
61014;BME280;46899;47.542;19.082;2022-11-14T04:07:18;101625.25;;;3.46;100.00
61014;BME280;46899;47.542;19.082;2022-11-14T04:10:39;101617.47;;;3.42;100.00
61014;BME280;46899;47.542;19.082;2022-11-14T04:14:01;101605.59;;;3.52;100.00
61014;BME280;46899;47.542;19.082;2022-11-14T04:17:21;101613.31;;;3.50;100.00
61014;BME280;46899;47.542;19.082;2022-11-14T04:20:43;101602.16;;;3.51;100.00
61014;BME280;46899;47.542;19.082;2022-11-14T04:24:04;101602.03;;;3.42;100.00
61014;BME280;46899;47.542;19.082;2022-11-14T04:27:30;101601.25;;;3.46;100.00
61014;BME280;46899;47.542;19.082;2022-11-14T04:30:51;101600.34;;;3.44;100.00
61014;BME280;46899;47.542;19.082;2022-11-14T04:34:12;101597.75;;;3.41;100.00
61014;BME280;46899;47.542;19.082;2022-11-14T04:37:33;101607.13;;;3.36;100.00
61014;BME280;46899;47.542;19.082;2022-11-14T04:40:53;101606.34;;;3.43;100.00
61014;BME280;46899;47.542;19.082;2022-11-14T04:44:14;101599.47;;;3.42;100.00
61014;BME280;46899;47.542;19.082;2022-11-14T04:47:35;101590.97;;;3.46;100.00
61014;BME280;46899;47.542;19.082;2022-11-14T04:50:56;101593.44;;;3.40;100.00
61014;BME280;46899;47.542;19.082;2022-11-14T04:54:16;101586.59;;;3.39;100.00
61014;BME280;46899;47.542;19.082;2022-11-14T04:57:37;101578.87;;;3.39;100.00
61014;BME280;46899;47.542;19.082;2022-11-14T05:00:58;101582.34;;;3.44;100.00
61014;BME280;46899;47.542;19.082;2022-11-14T05:04:19;101578.00;;;3.38;100.00
61014;BME280;46899;47.542;19.082;2022-11-14T05:07:40;101575.38;;;3.35;100.00
61014;BME280;46899;47.542;19.082;2022-11-14T05:11:01;101579.75;;;3.41;100.00
61014;BME280;46899;47.542;19.082;2022-11-14T05:14:22;101579.00;;;3.48;100.00
61014;BME280;46899;47.542;19.082;2022-11-14T05:17:43;101575.44;;;3.40;100.00
61014;BME280;46899;47.542;19.082;2022-11-14T05:21:04;101576.25;;;3.36;100.00
61014;BME280;46899;47.542;19.082;2022-11-14T05:24:25;101565.91;;;3.33;100.00
61014;BME280;46899;47.542;19.082;2022-11-14T05:27:46;101571.88;;;3.30;100.00
61014;BME280;46899;47.542;19.082;2022-11-14T05:31:11;101579.75;;;3.41;100.00
61014;BME280;46899;47.542;19.082;2022-11-14T05:34:38;101569.47;;;3.41;100.00
61014;BME280;46899;47.542;19.082;2022-11-14T05:37:59;101573.72;;;3.39;100.00
61014;BME280;46899;47.542;19.082;2022-11-14T05:41:20;101575.31;;;3.31;100.00
61014;BME280;46899;47.542;19.082;2022-11-14T05:44:41;101571.81;;;3.27;100.00
61014;BME280;46899;47.542;19.082;2022-11-14T05:48:02;101576.13;;;3.28;100.00
61014;BME280;46899;47.542;19.082;2022-11-14T05:51:22;101570.00;;;3.20;100.00
61014;BME280;46899;47.542;19.082;2022-11-14T05:54:43;101581.94;;;3.15;100.00
61014;BME280;46899;47.542;19.082;2022-11-14T05:58:04;101578.47;;;3.13;100.00
61014;BME280;46899;47.542;19.082;2022-11-14T06:01:25;101586.16;;;3.12;100.00
61014;BME280;46899;47.542;19.082;2022-11-14T06:04:47;101589.75;;;3.21;100.00
61014;BME280;46899;47.542;19.082;2022-11-14T06:08:07;101576.13;;;3.27;100.00
61014;BME280;46899;47.542;19.082;2022-11-14T06:11:28;101578.69;;;3.27;100.00
61014;BME280;46899;47.542;19.082;2022-11-14T06:14:49;101591.69;;;3.36;100.00
61014;BME280;46899;47.542;19.082;2022-11-14T06:18:10;101586.59;;;3.39;100.00
61014;BME280;46899;47.542;19.082;2022-11-14T06:21:31;101591.72;;;3.39;100.00
61014;BME280;46899;47.542;19.082;2022-11-14T06:24:52;101595.13;;;3.38;100.00
61014;BME280;46899;47.542;19.082;2022-11-14T06:28:13;101599.53;;;3.46;100.00
61014;BME280;46899;47.542;19.082;2022-11-14T06:31:34;101603.91;;;3.52;100.00
61014;BME280;46899;47.542;19.082;2022-11-14T06:34:55;101600.53;;;3.56;100.00
61014;BME280;46899;47.542;19.082;2022-11-14T06:38:16;101602.31;;;3.63;100.00
61014;BME280;46899;47.542;19.082;2022-11-14T06:41:37;101607.41;;;3.59;100.00
61014;BME280;46899;47.542;19.082;2022-11-14T06:44:57;101610.03;;;3.60;100.00
61014;BME280;46899;47.542;19.082;2022-11-14T06:48:18;101610.09;;;3.65;100.00
61014;BME280;46899;47.542;19.082;2022-11-14T06:51:39;101605.09;;;3.77;100.00
61014;BME280;46899;47.542;19.082;2022-11-14T06:55:00;101599.09;;;3.76;100.00
61014;BME280;46899;47.542;19.082;2022-11-14T06:58:22;101600.78;;;3.74;100.00
61014;BME280;46899;47.542;19.082;2022-11-14T07:01:44;101605.12;;;3.80;100.00
61014;BME280;46899;47.542;19.082;2022-11-14T07:05:05;101600.22;;;3.98;100.00
61014;BME280;46899;47.542;19.082;2022-11-14T07:08:26;101596.16;;;4.18;100.00
61014;BME280;46899;47.542;19.082;2022-11-14T07:11:47;101610.88;;;4.30;100.00
61014;BME280;46899;47.542;19.082;2022-11-14T07:15:07;101607.28;;;4.17;100.00
61014;BME280;46899;47.542;19.082;2022-11-14T07:18:29;101615.28;;;4.40;100.00
61014;BME280;46899;47.542;19.082;2022-11-14T07:21:50;101618.03;;;4.59;100.00
61014;BME280;46899;47.542;19.082;2022-11-14T07:25:11;101611.28;;;4.70;100.00
61014;BME280;46899;47.542;19.082;2022-11-14T07:28:32;101607.91;;;4.79;100.00
61014;BME280;46899;47.542;19.082;2022-11-14T07:31:53;101613.06;;;4.79;100.00
61014;BME280;46899;47.542;19.082;2022-11-14T07:35:14;101607.13;;;4.86;100.00
61014;BME280;46899;47.542;19.082;2022-11-14T07:38:36;101602.75;;;4.79;100.00
61014;BME280;46899;47.542;19.082;2022-11-14T07:41:56;101602.91;;;4.97;100.00
61014;BME280;46899;47.542;19.082;2022-11-14T07:45:17;101600.44;;;5.12;100.00
61014;BME280;46899;47.542;19.082;2022-11-14T07:48:39;101606.56;;;5.28;100.00
61014;BME280;46899;47.542;19.082;2022-11-14T07:52:00;101610.06;;;5.36;100.00
61014;BME280;46899;47.542;19.082;2022-11-14T07:55:20;101599.81;;;5.43;100.00
61014;BME280;46899;47.542;19.082;2022-11-14T07:58:41;101604.03;;;5.35;100.00
61014;BME280;46899;47.542;19.082;2022-11-14T08:02:02;101604.09;;;5.41;100.00
61014;BME280;46899;47.542;19.082;2022-11-14T08:05:23;101603.25;;;5.44;100.00
61014;BME280;46899;47.542;19.082;2022-11-14T08:08:46;101597.28;;;5.59;100.00
61014;BME280;46899;47.542;19.082;2022-11-14T08:12:07;101589.69;;;5.84;100.00
61014;BME280;46899;47.542;19.082;2022-11-14T08:15:28;101594.97;;;6.13;100.00
61014;BME280;46899;47.542;19.082;2022-11-14T08:18:48;101588.97;;;6.23;100.00
61014;BME280;46899;47.542;19.082;2022-11-14T08:22:09;101580.41;;;6.33;100.00
61014;BME280;46899;47.542;19.082;2022-11-14T08:25:30;101584.69;;;6.43;100.00
61014;BME280;46899;47.542;19.082;2022-11-14T08:28:51;101574.38;;;6.60;100.00
61014;BME280;46899;47.542;19.082;2022-11-14T08:32:13;101569.25;;;6.73;100.00
61014;BME280;46899;47.542;19.082;2022-11-14T08:35:35;101565.78;;;6.86;100.00
61014;BME280;46899;47.542;19.082;2022-11-14T08:38:56;101567.47;;;7.15;100.00
61014;BME280;46899;47.542;19.082;2022-11-14T08:42:21;101566.59;;;7.32;100.00
61014;BME280;46899;47.542;19.082;2022-11-14T08:45:41;101563.97;;;7.35;100.00
61014;BME280;46899;47.542;19.082;2022-11-14T08:49:02;101562.28;;;7.25;100.00
61014;BME280;46899;47.542;19.082;2022-11-14T08:52:23;101562.28;;;7.24;100.00
61014;BME280;46899;47.542;19.082;2022-11-14T08:55:47;101562.28;;;7.15;100.00
61014;BME280;46899;47.542;19.082;2022-11-14T08:59:09;101564.03;;;7.13;100.00
61014;BME280;46899;47.542;19.082;2022-11-14T09:02:30;101559.72;;;7.15;100.00
61014;BME280;46899;47.542;19.082;2022-11-14T09:05:51;101563.13;;;7.33;100.00
61014;BME280;46899;47.542;19.082;2022-11-14T09:09:11;101560.53;;;7.44;100.00
61014;BME280;46899;47.542;19.082;2022-11-14T09:12:32;101556.16;;;7.55;100.00
61014;BME280;46899;47.542;19.082;2022-11-14T09:15:53;101552.69;;;7.56;100.00
61014;BME280;46899;47.542;19.082;2022-11-14T09:19:14;101553.50;;;7.75;100.00
61014;BME280;46899;47.542;19.082;2022-11-14T09:22:35;101559.44;;;7.95;100.00
61014;BME280;46899;47.542;19.082;2022-11-14T09:25:56;101556.88;;;7.90;100.00
61014;BME280;46899;47.542;19.082;2022-11-14T09:29:17;101554.97;;;8.27;100.00
61014;BME280;46899;47.542;19.082;2022-11-14T09:32:38;101545.37;;;8.40;100.00
61014;BME280;46899;47.542;19.082;2022-11-14T09:35:59;101545.31;;;8.52;100.00
61014;BME280;46899;47.542;19.082;2022-11-14T09:39:20;101547.75;;;8.71;100.00
61014;BME280;46899;47.542;19.082;2022-11-14T09:42:57;101547.72;;;8.76;100.00
61014;BME280;46899;47.542;19.082;2022-11-14T09:49:44;101527.59;;;8.99;100.00
61014;BME280;46899;47.542;19.082;2022-11-14T09:56:45;101520.41;;;9.25;100.00
61014;BME280;46899;47.542;19.082;2022-11-14T10:17:50;101501.69;;;9.69;100.00
61014;BME280;46899;47.542;19.082;2022-11-14T10:25:00;101483.97;;;9.97;100.00
61014;BME280;46899;47.542;19.082;2022-11-14T10:38:59;101464.44;;;10.29;100.00
61014;BME280;46899;47.542;19.082;2022-11-14T10:42:24;101459.94;;;10.39;100.00
61014;BME280;46899;47.542;19.082;2022-11-14T10:46:19;101462.25;;;10.57;100.00
61014;BME280;46899;47.542;19.082;2022-11-14T10:49:33;101457.88;;;10.58;100.00
61014;BME280;46899;47.542;19.082;2022-11-14T10:52:59;101452.47;;;10.71;100.00
61014;BME280;46899;47.542;19.082;2022-11-14T10:56:21;101438.53;;;10.72;100.00
61014;BME280;46899;47.542;19.082;2022-11-14T10:59:42;101435.59;;;10.90;100.00
61014;BME280;46899;47.542;19.082;2022-11-14T11:03:03;101434.75;;;10.90;100.00
61014;BME280;46899;47.542;19.082;2022-11-14T11:06:24;101428.12;;;10.74;100.00
61014;BME280;46899;47.542;19.082;2022-11-14T11:09:46;101423.56;;;10.85;100.00
61014;BME280;46899;47.542;19.082;2022-11-14T11:13:49;101412.41;;;10.78;100.00
61014;BME280;46899;47.542;19.082;2022-11-14T11:20:33;101409.72;;;11.26;100.00
61014;BME280;46899;47.542;19.082;2022-11-14T11:23:55;101405.12;;;11.37;100.00
61014;BME280;46899;47.542;19.082;2022-11-14T11:30:38;101402.28;;;11.49;100.00
61014;BME280;46899;47.542;19.082;2022-11-14T11:34:01;101397.91;;;11.49;100.00
61014;BME280;46899;47.542;19.082;2022-11-14T11:37:26;101390.00;;;11.54;100.00
61014;BME280;46899;47.542;19.082;2022-11-14T11:45:03;101384.88;;;11.49;100.00
61014;BME280;46899;47.542;19.082;2022-11-14T11:48:27;101383.13;;;11.50;100.00
61014;BME280;46899;47.542;19.082;2022-11-14T11:51:50;101387.28;;;11.58;100.00
61014;BME280;46899;47.542;19.082;2022-11-14T11:55:16;101378.44;;;11.65;100.00
61014;BME280;46899;47.542;19.082;2022-11-14T11:58:42;101378.16;;;11.78;100.00
61014;BME280;46899;47.542;19.082;2022-11-14T12:02:38;101386.97;;;11.74;100.00
61014;BME280;46899;47.542;19.082;2022-11-14T12:05:54;101364.31;;;11.76;100.00
61014;BME280;46899;47.542;19.082;2022-11-14T12:09:18;101356.69;;;11.66;100.00
61014;BME280;46899;47.542;19.082;2022-11-14T12:16:05;101350.34;;;11.78;100.00
61014;BME280;46899;47.542;19.082;2022-11-14T12:33:08;101322.88;;;11.99;100.00
61014;BME280;46899;47.542;19.082;2022-11-14T12:36:30;101316.66;;;12.04;100.00
61014;BME280;46899;47.542;19.082;2022-11-14T12:39:55;101314.16;;;12.00;100.00
61014;BME280;46899;47.542;19.082;2022-11-14T12:50:26;101297.00;;;11.91;100.00
61014;BME280;46899;47.542;19.082;2022-11-14T12:53:47;101311.09;;;12.18;86.10
61014;BME280;46899;47.542;19.082;2022-11-14T12:57:08;101305.47;;;12.33;81.58
61014;BME280;46899;47.542;19.082;2022-11-14T13:11:51;101290.16;;;12.52;82.53
61014;BME280;46899;47.542;19.082;2022-11-14T13:15:28;101290.81;;;12.60;83.58
61014;BME280;46899;47.542;19.082;2022-11-14T13:22:48;101272.41;;;12.33;84.87
61014;BME280;46899;47.542;19.082;2022-11-14T13:33:00;101278.22;;;12.43;83.59
61014;BME280;46899;47.542;19.082;2022-11-14T13:43:20;101271.25;;;12.13;89.79
61014;BME280;46899;47.542;19.082;2022-11-14T13:47:06;101266.53;;;12.25;86.46
61014;BME280;46899;47.542;19.082;2022-11-14T13:50:33;101259.00;;;12.15;89.45
61014;BME280;46899;47.542;19.082;2022-11-14T13:53:59;101246.28;;;12.03;89.65
61014;BME280;46899;47.542;19.082;2022-11-14T14:01:00;101247.84;;;12.08;88.03
61014;BME280;46899;47.542;19.082;2022-11-14T14:29:19;101236.50;;;11.07;98.70
61014;BME280;46899;47.542;19.082;2022-11-14T14:32:42;101238.34;;;11.02;99.78
61014;BME280;46899;47.542;19.082;2022-11-14T14:36:03;101223.66;;;10.97;99.79
61014;BME280;46899;47.542;19.082;2022-11-14T14:39:25;101229.16;;;10.85;100.00
61014;BME280;46899;47.542;19.082;2022-11-14T14:42:46;101228.41;;;10.80;100.00
61014;BME280;46899;47.542;19.082;2022-11-14T14:46:08;101229.44;;;10.72;100.00
61014;BME280;46899;47.542;19.082;2022-11-14T14:49:31;101231.22;;;10.71;100.00
61014;BME280;46899;47.542;19.082;2022-11-14T14:52:58;101226.94;;;10.67;100.00
61014;BME280;46899;47.542;19.082;2022-11-14T14:56:20;101225.44;;;10.57;100.00
61014;BME280;46899;47.542;19.082;2022-11-14T14:59:41;101224.91;;;10.40;100.00
61014;BME280;46899;47.542;19.082;2022-11-14T15:03:04;101234.59;;;10.32;100.00
61014;BME280;46899;47.542;19.082;2022-11-14T15:06:32;101224.53;;;10.17;100.00
61014;BME280;46899;47.542;19.082;2022-11-14T15:09:55;101223.00;;;10.04;100.00
61014;BME280;46899;47.542;19.082;2022-11-14T15:13:17;101220.47;;;10.01;100.00
61014;BME280;46899;47.542;19.082;2022-11-14T15:16:38;101219.69;;;9.96;100.00
61014;BME280;46899;47.542;19.082;2022-11-14T15:19:59;101217.19;;;9.90;100.00
61014;BME280;46899;47.542;19.082;2022-11-14T15:23:20;101217.53;;;9.72;100.00
61014;BME280;46899;47.542;19.082;2022-11-14T15:26:44;101215.28;;;9.50;100.00
61014;BME280;46899;47.542;19.082;2022-11-14T15:30:18;101212.91;;;9.38;100.00
61014;BME280;46899;47.542;19.082;2022-11-14T15:33:39;101211.38;;;9.25;100.00
61014;BME280;46899;47.542;19.082;2022-11-14T15:37:14;101216.63;;;9.22;100.00
61014;BME280;46899;47.542;19.082;2022-11-14T15:40:39;101206.37;;;9.12;100.00
61014;BME280;46899;47.542;19.082;2022-11-14T15:43:59;101205.78;;;8.96;100.00
61014;BME280;46899;47.542;19.082;2022-11-14T15:47:28;101204.31;;;8.78;100.00
61014;BME280;46899;47.542;19.082;2022-11-14T15:50:50;101203.56;;;8.70;100.00
61014;BME280;46899;47.542;19.082;2022-11-14T15:57:44;101202.00;;;8.56;100.00
61014;BME280;46899;47.542;19.082;2022-11-14T16:01:17;101208.28;;;8.40;100.00
61014;BME280;46899;47.542;19.082;2022-11-14T16:04:42;101213.66;;;8.21;100.00
61014;BME280;46899;47.542;19.082;2022-11-14T16:08:08;101207.75;;;8.09;100.00
61014;BME280;46899;47.542;19.082;2022-11-14T16:11:29;101206.13;;;7.97;100.00
61014;BME280;46899;47.542;19.082;2022-11-14T16:14:50;101211.25;;;8.03;100.00
61014;BME280;46899;47.542;19.082;2022-11-14T16:18:11;101213.13;;;7.91;100.00
61014;BME280;46899;47.542;19.082;2022-11-14T16:21:32;101209.78;;;7.81;100.00
61014;BME280;46899;47.542;19.082;2022-11-14T16:24:53;101220.19;;;7.74;100.00
61014;BME280;46899;47.542;19.082;2022-11-14T16:28:13;101224.56;;;7.66;100.00
61014;BME280;46899;47.542;19.082;2022-11-14T16:31:34;101219.50;;;7.55;100.00
61014;BME280;46899;47.542;19.082;2022-11-14T16:34:55;101213.56;;;7.44;100.00
61014;BME280;46899;47.542;19.082;2022-11-14T16:38:16;101226.53;;;7.41;100.00
61014;BME280;46899;47.542;19.082;2022-11-14T16:41:36;101213.72;;;7.27;100.00
61014;BME280;46899;47.542;19.082;2022-11-14T16:45:00;101215.47;;;7.22;100.00
61014;BME280;46899;47.542;19.082;2022-11-14T16:48:21;101216.37;;;7.17;100.00
61014;BME280;46899;47.542;19.082;2022-11-14T16:51:42;101216.37;;;7.14;100.00
61014;BME280;46899;47.542;19.082;2022-11-14T16:55:09;101214.75;;;7.04;100.00
61014;BME280;46899;47.542;19.082;2022-11-14T16:58:31;101220.78;;;7.00;100.00
61014;BME280;46899;47.542;19.082;2022-11-14T17:01:51;101216.50;;;7.02;100.00
61014;BME280;46899;47.542;19.082;2022-11-14T17:05:12;101226.84;;;7.02;100.00
61014;BME280;46899;47.542;19.082;2022-11-14T17:08:33;101220.78;;;7.00;100.00
61014;BME280;46899;47.542;19.082;2022-11-14T17:11:54;101225.09;;;7.04;100.00
61014;BME280;46899;47.542;19.082;2022-11-14T17:15:15;101225.09;;;7.01;100.00
61014;BME280;46899;47.542;19.082;2022-11-14T17:18:36;101228.53;;;7.00;100.00
61014;BME280;46899;47.542;19.082;2022-11-14T17:21:59;101221.72;;;6.91;100.00
61014;BME280;46899;47.542;19.082;2022-11-14T17:25:19;101224.34;;;6.83;100.00
61014;BME280;46899;47.542;19.082;2022-11-14T17:28:40;101229.56;;;6.77;100.00
61014;BME280;46899;47.542;19.082;2022-11-14T17:32:03;101224.41;;;6.73;100.00
61014;BME280;46899;47.542;19.082;2022-11-14T17:35:24;101217.50;;;6.72;100.00
61014;BME280;46899;47.542;19.082;2022-11-14T17:38:45;101210.66;;;6.65;100.00
61014;BME280;46899;47.542;19.082;2022-11-14T17:42:05;101218.44;;;6.60;100.00
61014;BME280;46899;47.542;19.082;2022-11-14T17:45:26;101205.56;;;6.54;100.00
61014;BME280;46899;47.542;19.082;2022-11-14T17:48:47;101206.41;;;6.50;100.00
61014;BME280;46899;47.542;19.082;2022-11-14T17:52:08;101206.44;;;6.52;100.00
61014;BME280;46899;47.542;19.082;2022-11-14T17:55:29;101211.56;;;6.56;100.00
61014;BME280;46899;47.542;19.082;2022-11-14T17:58:50;101204.66;;;6.55;100.00
61014;BME280;46899;47.542;19.082;2022-11-14T18:02:12;101207.28;;;6.48;100.00
61014;BME280;46899;47.542;19.082;2022-11-14T18:05:33;101203.03;;;6.42;100.00
61014;BME280;46899;47.542;19.082;2022-11-14T18:08:54;101199.59;;;6.34;100.00
61014;BME280;46899;47.542;19.082;2022-11-14T18:12:15;101202.22;;;6.28;100.00
61014;BME280;46899;47.542;19.082;2022-11-14T18:15:36;101202.25;;;6.17;100.00
61014;BME280;46899;47.542;19.082;2022-11-14T18:18:57;101201.41;;;6.08;100.00
61014;BME280;46899;47.542;19.082;2022-11-14T18:22:18;101202.31;;;6.02;100.00
61014;BME280;46899;47.542;19.082;2022-11-14T18:25:39;101195.44;;;5.97;100.00
61014;BME280;46899;47.542;19.082;2022-11-14T18:29:00;101191.12;;;5.90;100.00
61014;BME280;46899;47.542;19.082;2022-11-14T18:32:23;101190.28;;;5.85;100.00
61014;BME280;46899;47.542;19.082;2022-11-14T18:35:44;101194.56;;;5.80;100.00
61014;BME280;46899;47.542;19.082;2022-11-14T18:39:13;101192.03;;;5.72;100.00
61014;BME280;46899;47.542;19.082;2022-11-14T18:42:34;101187.72;;;5.67;100.00
61014;BME280;46899;47.542;19.082;2022-11-14T18:45:55;101193.75;;;5.61;100.00
61014;BME280;46899;47.542;19.082;2022-11-14T18:49:16;101192.03;;;5.57;100.00
61014;BME280;46899;47.542;19.082;2022-11-14T18:52:37;101186.88;;;5.52;100.00
61014;BME280;46899;47.542;19.082;2022-11-14T18:56:01;101183.44;;;5.47;100.00
61014;BME280;46899;47.542;19.082;2022-11-14T18:59:22;101182.56;;;5.42;100.00
61014;BME280;46899;47.542;19.082;2022-11-14T19:02:48;101180.88;;;5.38;100.00
61014;BME280;46899;47.542;19.082;2022-11-14T19:06:10;101181.72;;;5.31;100.00
61014;BME280;46899;47.542;19.082;2022-11-14T19:09:30;101184.31;;;5.22;100.00
61014;BME280;46899;47.542;19.082;2022-11-14T19:12:51;101172.28;;;5.12;100.00
61014;BME280;46899;47.542;19.082;2022-11-14T19:16:12;101178.28;;;5.10;100.00
61014;BME280;46899;47.542;19.082;2022-11-14T19:19:33;101167.97;;;5.02;100.00
61014;BME280;46899;47.542;19.082;2022-11-14T19:22:54;101175.72;;;4.99;100.00
61014;BME280;46899;47.542;19.082;2022-11-14T19:26:14;101171.38;;;4.95;100.00
61014;BME280;46899;47.542;19.082;2022-11-14T19:29:36;101166.22;;;4.91;100.00
61014;BME280;46899;47.542;19.082;2022-11-14T19:32:56;101167.09;;;4.85;100.00
61014;BME280;46899;47.542;19.082;2022-11-14T19:36:18;101166.22;;;4.87;100.00